createdAt,value
2019-03-03T00:01:27.827Z,97075.31
2019-03-03T00:04:36.220Z,97084.05
2019-03-03T00:07:44.124Z,97083.69
2019-03-03T00:10:53.628Z,97080.13
2019-03-03T00:14:04.057Z,97082.77
2019-03-03T00:17:11.487Z,97078.30
2019-03-03T00:20:22.276Z,97085.36
2019-03-03T00:23:33.989Z,97088.69
2019-03-03T00:26:42.902Z,97083.83
2019-03-03T00:29:52.668Z,97075.45
2019-03-03T00:32:59.859Z,97078.08
2019-03-03T00:36:07.356Z,97076.63
2019-03-03T00:39:35.921Z,97078.91
2019-03-03T00:43:06.903Z,97078.04
2019-03-03T00:46:44.025Z,97083.30
2019-03-03T00:50:19.037Z,97078.26
2019-03-03T00:53:49.643Z,97073.13
2019-03-03T00:57:05.673Z,97077.07
2019-03-03T01:00:37.823Z,97070.88
2019-03-03T01:04:02.041Z,97066.67
2019-03-03T01:07:20.586Z,97057.16
2019-03-03T01:10:35.060Z,97043.19
2019-03-03T01:14:03.828Z,97046.08
2019-03-03T01:17:22.120Z,97058.98
2019-03-03T01:20:47.977Z,97069.55
2019-03-03T01:24:19.405Z,97067.30
2019-03-03T01:27:26.560Z,97061.81
2019-03-03T01:30:33.327Z,97056.96
2019-03-03T01:33:39.743Z,97051.34
2019-03-03T01:36:46.472Z,97060.81
2019-03-03T01:39:52.982Z,97063.41
2019-03-03T01:42:59.302Z,97057.09
2019-03-03T01:46:06.280Z,97065.47
2019-03-03T01:49:13.010Z,97047.05
2019-03-03T01:52:19.726Z,97051.25
2019-03-03T01:55:26.256Z,97054.62
2019-03-03T01:58:33.216Z,97056.93
2019-03-03T02:01:39.761Z,97055.71
2019-03-03T02:04:46.654Z,97043.86
2019-03-03T02:07:53.327Z,97040.39
2019-03-03T02:10:59.743Z,97035.70
2019-03-03T02:14:06.184Z,97034.39
2019-03-03T02:17:12.534Z,97034.01
2019-03-03T02:20:18.869Z,97028.87
2019-03-03T02:23:26.015Z,97022.87
2019-03-03T02:26:32.328Z,97022.87
2019-03-03T02:29:39.602Z,97031.83
2019-03-03T02:32:45.726Z,97033.69
2019-03-03T02:35:52.383Z,97030.61
2019-03-03T02:38:58.885Z,97030.25
2019-03-03T02:42:05.514Z,97031.38
2019-03-03T02:45:12.800Z,97020.81
2019-03-03T02:48:20.070Z,97022.58
2019-03-03T02:51:27.217Z,97019.14
2019-03-03T02:54:33.891Z,97024.64
2019-03-03T02:57:40.892Z,97024.98
2019-03-03T03:01:02.707Z,97028.65
2019-03-03T03:04:09.712Z,97028.48
2019-03-03T03:09:27.429Z,97017.70
2019-03-03T03:12:51.786Z,97025.23
2019-03-03T03:16:04.165Z,97017.34
2019-03-03T03:19:32.366Z,97013.50
2019-03-03T03:22:57.427Z,97016.69
2019-03-03T03:26:21.425Z,97021.47
2019-03-03T03:29:47.619Z,97014.45
2019-03-03T03:33:14.511Z,97011.12
2019-03-03T03:36:30.694Z,97023.66
2019-03-03T03:39:49.842Z,97018.05
2019-03-03T03:43:14.999Z,97013.05
2019-03-03T03:46:49.772Z,97004.50
2019-03-03T03:50:30.315Z,96997.09
2019-03-03T03:54:04.485Z,97001.75
2019-03-03T03:57:27.049Z,96995.56
2019-03-03T04:01:04.408Z,96992.94
2019-03-03T04:04:28.462Z,96985.70
2019-03-03T04:07:53.858Z,96986.05
2019-03-03T04:11:12.550Z,96995.17
2019-03-03T04:14:32.387Z,96996.25
2019-03-03T04:18:04.539Z,96989.33
2019-03-03T04:21:39.193Z,96985.55
2019-03-03T04:25:05.647Z,96979.19
2019-03-03T04:28:36.541Z,96976.52
2019-03-03T04:31:59.604Z,96972.45
2019-03-03T04:35:25.378Z,96965.74
2019-03-03T04:38:57.029Z,96958.27
2019-03-03T04:42:15.828Z,96958.88
2019-03-03T04:45:28.240Z,96935.32
2019-03-03T04:48:53.718Z,96945.59
2019-03-03T04:52:19.335Z,96947.77
2019-03-03T04:55:47.885Z,96936.52
2019-03-03T04:59:25.422Z,96926.47
2019-03-03T05:02:41.876Z,96932.79
2019-03-03T05:06:03.807Z,96927.02
2019-03-03T05:09:35.891Z,96927.67
2019-03-03T05:12:56.814Z,96918.16
2019-03-03T05:16:27.022Z,96902.23
2019-03-03T05:19:52.708Z,96909.04
2019-03-03T05:22:59.033Z,96898.53
2019-03-03T05:26:05.884Z,96843.04
2019-03-03T05:29:12.299Z,96838.62
2019-03-03T05:32:18.384Z,96843.39
2019-03-03T05:35:25.135Z,96849.38
2019-03-03T05:38:31.980Z,96840.51
2019-03-03T05:41:38.726Z,96816.45
2019-03-03T05:44:45.110Z,96800.89
2019-03-03T05:47:51.465Z,96794.41
2019-03-03T05:50:58.576Z,96799.57
2019-03-03T05:54:05.302Z,96815.61
2019-03-03T05:57:12.073Z,96812.76
2019-03-03T06:00:19.342Z,96797.05
2019-03-03T06:03:25.729Z,96812.39
2019-03-03T06:06:32.290Z,96814.41
2019-03-03T06:09:38.727Z,96812.74
2019-03-03T06:12:45.314Z,96818.38
2019-03-03T06:15:52.109Z,96809.02
2019-03-03T06:18:58.739Z,96827.24
2019-03-03T06:22:05.743Z,96835.02
2019-03-03T06:25:12.463Z,96844.84
2019-03-03T06:28:19.272Z,96831.91
2019-03-03T06:31:26.770Z,96823.76
2019-03-03T06:34:33.654Z,96823.17
2019-03-03T06:37:40.119Z,96825.91
2019-03-03T06:40:46.750Z,96821.00
2019-03-03T06:43:53.222Z,96828.91
2019-03-03T06:46:59.679Z,96834.06
2019-03-03T06:50:07.378Z,96827.83
2019-03-03T06:53:13.895Z,96833.80
2019-03-03T06:56:20.355Z,96838.48
2019-03-03T06:59:26.813Z,96831.30
2019-03-03T07:02:33.390Z,96831.52
2019-03-03T07:05:40.732Z,96829.39
2019-03-03T07:08:47.149Z,96822.30
2019-03-03T07:11:53.681Z,96819.20
2019-03-03T07:15:00.347Z,96809.36
2019-03-03T07:18:06.930Z,96812.10
2019-03-03T07:21:13.345Z,96810.78
2019-03-03T07:24:19.777Z,96811.02
2019-03-03T07:27:26.935Z,96805.27
2019-03-03T07:30:33.597Z,96816.98
2019-03-03T07:33:43.787Z,96824.30
2019-03-03T07:36:50.137Z,96826.59
2019-03-03T07:39:56.884Z,96838.80
2019-03-03T07:43:04.019Z,96831.02
2019-03-03T07:46:10.537Z,96845.14
2019-03-03T07:49:17.630Z,96844.66
2019-03-03T07:52:24.553Z,96838.17
2019-03-03T07:55:31.341Z,96843.44
2019-03-03T07:58:38.259Z,96852.21
2019-03-03T08:01:45.830Z,96861.98
2019-03-03T08:04:52.701Z,96844.41
2019-03-03T08:07:59.372Z,96845.13
2019-03-03T08:11:05.990Z,96847.28
2019-03-03T08:14:12.950Z,96858.42
2019-03-03T08:17:19.258Z,96852.21
2019-03-03T08:20:25.909Z,96844.30
2019-03-03T08:23:36.262Z,96861.78
2019-03-03T08:26:43.527Z,96859.25
2019-03-03T08:29:50.296Z,96850.27
2019-03-03T08:32:57.345Z,96867.98
2019-03-03T08:36:04.198Z,96844.79
2019-03-03T08:39:11.796Z,96842.30
2019-03-03T08:42:49.675Z,96847.98
2019-03-03T08:46:13.864Z,96849.29
2019-03-03T08:49:45.532Z,96846.00
2019-03-03T08:53:15.264Z,96840.57
2019-03-03T08:56:42.763Z,96840.71
2019-03-03T09:00:14.713Z,96839.93
2019-03-03T09:03:38.871Z,96849.88
2019-03-03T09:07:16.413Z,96851.05
2019-03-03T09:10:30.152Z,96863.97
2019-03-03T09:13:47.821Z,96861.23
2019-03-03T09:17:19.416Z,96858.94
2019-03-03T09:20:51.355Z,96856.62
2019-03-03T09:24:17.264Z,96849.05
2019-03-03T09:27:41.487Z,96827.88
2019-03-03T09:31:16.424Z,96814.81
2019-03-03T09:34:41.177Z,96813.09
2019-03-03T09:38:15.981Z,96815.26
2019-03-03T09:41:45.274Z,96813.44
2019-03-03T09:45:10.020Z,96804.00
2019-03-03T09:48:34.093Z,96823.75
2019-03-03T09:51:54.237Z,96831.18
2019-03-03T09:55:26.128Z,96835.41
2019-03-03T09:58:50.520Z,96838.75
2019-03-03T10:02:14.416Z,96845.83
2019-03-03T10:05:50.222Z,96841.27
2019-03-03T10:09:15.775Z,96846.31
2019-03-03T10:12:32.840Z,96842.61
2019-03-03T10:16:06.113Z,96847.00
2019-03-03T10:19:22.219Z,96843.78
2019-03-03T10:22:42.208Z,96838.98
2019-03-03T10:26:07.993Z,96849.42
2019-03-03T10:29:37.027Z,96851.72
2019-03-03T10:33:16.763Z,96860.28
2019-03-03T10:36:42.691Z,96844.50
2019-03-03T10:39:58.447Z,96838.22
2019-03-03T10:43:44.529Z,96832.77
2019-03-03T10:47:13.293Z,96836.25
2019-03-03T10:50:38.998Z,96831.39
2019-03-03T10:54:10.996Z,96817.51
2019-03-03T10:57:39.496Z,96808.14
2019-03-03T11:01:18.187Z,96807.62
2019-03-03T11:04:42.734Z,96811.05
2019-03-03T11:08:11.206Z,96800.31
2019-03-03T11:11:37.385Z,96796.49
2019-03-03T11:15:06.373Z,96790.98
2019-03-03T11:18:32.471Z,96801.40
2019-03-03T11:22:07.909Z,96792.72
2019-03-03T11:25:23.639Z,96796.95
2019-03-03T11:29:07.671Z,96800.91
2019-03-03T11:32:42.821Z,96790.76
2019-03-03T11:36:11.686Z,96789.66
2019-03-03T11:39:39.597Z,96782.91
2019-03-03T11:42:53.952Z,96782.22
2019-03-03T11:46:11.287Z,96769.25
2019-03-03T11:49:32.502Z,96760.55
2019-03-03T11:53:04.281Z,96758.20
2019-03-03T11:56:28.585Z,96737.32
2019-03-03T11:59:46.785Z,96750.72
2019-03-03T12:03:08.904Z,96755.47
2019-03-03T12:06:26.312Z,96755.11
2019-03-03T12:10:00.842Z,96744.45
2019-03-03T12:13:15.689Z,96729.65
2019-03-03T12:16:48.440Z,96741.91
2019-03-03T12:20:08.842Z,96738.69
2019-03-03T12:23:49.687Z,96736.70
2019-03-03T12:27:15.360Z,96745.19
2019-03-03T12:30:34.373Z,96743.09
2019-03-03T12:33:48.006Z,96741.70
2019-03-03T12:37:13.698Z,96742.32
2019-03-03T12:40:42.174Z,96739.80
2019-03-03T12:44:10.240Z,96756.52
2019-03-03T12:47:35.513Z,96754.64
2019-03-03T12:50:55.229Z,96759.16
2019-03-03T12:54:23.294Z,96750.12
2019-03-03T12:57:51.987Z,96759.13
2019-03-03T13:01:17.967Z,96763.98
2019-03-03T13:04:39.092Z,96758.69
2019-03-03T13:08:21.600Z,96769.47
2019-03-03T13:11:39.913Z,96764.23
2019-03-03T13:15:14.936Z,96767.45
2019-03-03T13:18:32.021Z,96764.95
2019-03-03T13:21:46.592Z,96758.34
2019-03-03T13:25:21.691Z,96757.09
2019-03-03T13:28:34.261Z,96749.05
2019-03-03T13:32:09.566Z,96736.55
2019-03-03T13:35:37.832Z,96736.18
2019-03-03T13:38:52.063Z,96733.05
2019-03-03T13:42:09.605Z,96728.13
2019-03-03T13:45:16.433Z,96723.92
2019-03-03T13:48:23.361Z,96714.27
2019-03-03T13:51:30.127Z,96709.22
2019-03-03T13:54:38.076Z,96712.77
2019-03-03T13:57:45.181Z,96713.06
2019-03-03T14:00:53.019Z,96705.92
2019-03-03T14:04:01.289Z,96698.30
2019-03-03T14:07:08.233Z,96704.20
2019-03-03T14:10:16.081Z,96691.27
2019-03-03T14:13:24.376Z,96689.55
2019-03-03T14:16:30.918Z,96690.02
2019-03-03T14:19:38.675Z,96684.95
2019-03-03T14:22:45.788Z,96676.42
2019-03-03T14:25:55.511Z,96670.09
2019-03-03T14:29:02.687Z,96659.18
2019-03-03T14:32:09.617Z,96656.86
2019-03-03T14:35:17.916Z,96652.91
2019-03-03T14:38:26.088Z,96659.17
2019-03-03T14:41:33.295Z,96656.63
2019-03-03T14:44:39.745Z,96654.14
2019-03-03T14:47:48.258Z,96656.63
2019-03-03T14:50:55.285Z,96655.30
2019-03-03T14:54:02.211Z,96650.16
2019-03-03T14:57:09.340Z,96650.09
2019-03-03T15:00:27.291Z,96642.38
2019-03-03T15:03:34.379Z,96648.02
2019-03-03T15:06:41.582Z,96645.39
2019-03-03T15:09:48.540Z,96652.88
2019-03-03T15:12:58.003Z,96642.75
2019-03-03T15:16:04.296Z,96650.16
2019-03-03T15:19:10.930Z,96653.66
2019-03-03T15:22:17.770Z,96644.25
2019-03-03T15:25:25.222Z,96639.46
2019-03-03T15:28:31.679Z,96624.44
2019-03-03T15:31:39.425Z,96624.10
2019-03-03T15:34:46.450Z,96610.74
2019-03-03T15:37:53.538Z,96601.50
2019-03-03T15:41:00.363Z,96600.18
2019-03-03T15:44:07.029Z,96597.36
2019-03-03T15:47:13.915Z,96595.39
2019-03-03T15:50:21.067Z,96586.63
2019-03-03T15:53:27.706Z,96594.00
2019-03-03T15:56:34.862Z,96592.39
2019-03-03T15:59:41.964Z,96586.00
2019-03-03T16:02:48.946Z,96592.11
2019-03-03T16:05:58.061Z,96588.84
2019-03-03T16:09:12.086Z,96577.58
2019-03-03T16:12:19.320Z,96572.01
2019-03-03T16:15:28.002Z,96575.17
2019-03-03T16:18:38.861Z,96571.63
2019-03-03T16:21:47.183Z,96567.54
2019-03-03T16:24:56.264Z,96561.48
2019-03-03T16:28:03.800Z,96562.85
2019-03-03T16:31:10.738Z,96555.86
2019-03-03T16:34:17.717Z,96546.97
2019-03-03T16:37:26.790Z,96541.63
2019-03-03T16:40:39.505Z,96552.02
2019-03-03T16:43:42.807Z,96534.53
2019-03-03T16:46:50.070Z,96532.45
2019-03-03T16:49:58.974Z,96531.89
2019-03-03T16:53:05.894Z,96541.28
2019-03-03T16:56:14.107Z,96528.64
2019-03-03T16:59:21.218Z,96528.22
2019-03-03T17:02:27.947Z,96546.97
2019-03-03T17:05:35.379Z,96531.34
2019-03-03T17:08:41.893Z,96533.56
2019-03-03T17:11:48.358Z,96530.16
2019-03-03T17:14:55.500Z,96532.12
2019-03-03T17:18:03.081Z,96517.05
2019-03-03T17:21:10.252Z,96532.05
2019-03-03T17:24:17.137Z,96532.89
2019-03-03T17:27:25.121Z,96540.86
2019-03-03T17:30:31.899Z,96525.15
2019-03-03T17:33:38.858Z,96521.28
2019-03-03T17:36:46.066Z,96529.05
2019-03-03T17:39:52.974Z,96525.73
2019-03-03T17:42:59.840Z,96514.80
2019-03-03T17:46:07.644Z,96505.44
2019-03-03T17:49:15.228Z,96513.97
2019-03-03T17:52:24.096Z,96506.83
2019-03-03T17:55:31.607Z,96509.40
2019-03-03T17:58:38.816Z,96513.06
2019-03-03T18:01:46.879Z,96512.08
2019-03-03T18:04:53.740Z,96503.13
2019-03-03T18:08:01.090Z,96496.69
2019-03-03T18:11:08.175Z,96490.08
2019-03-03T18:14:15.012Z,96478.55
2019-03-03T18:17:22.531Z,96476.61
2019-03-03T18:20:47.947Z,96460.28
2019-03-03T18:24:12.611Z,96451.32
2019-03-03T18:27:36.959Z,96449.36
2019-03-03T18:34:46.337Z,96450.62
2019-03-03T18:38:10.951Z,96461.18
2019-03-03T18:41:36.385Z,96466.73
2019-03-03T18:45:01.788Z,96457.22
2019-03-03T18:48:27.628Z,96466.45
2019-03-03T18:51:53.214Z,96462.93
2019-03-03T18:55:17.994Z,96462.78
2019-03-03T18:58:42.911Z,96470.58
2019-03-03T19:02:08.818Z,96452.38
2019-03-03T19:05:33.648Z,96452.64
2019-03-03T19:09:02.235Z,96448.41
2019-03-03T19:12:32.038Z,96447.37
2019-03-03T19:15:57.260Z,96435.61
2019-03-03T19:19:21.992Z,96430.97
2019-03-03T19:22:46.779Z,96432.14
2019-03-03T19:26:11.318Z,96419.09
2019-03-03T19:29:35.665Z,96422.50
2019-03-03T19:33:04.164Z,96421.91
2019-03-03T19:36:29.961Z,96416.19
2019-03-03T19:39:54.262Z,96417.84
2019-03-03T19:43:19.275Z,96413.67
2019-03-03T19:46:44.114Z,96407.98
2019-03-03T19:50:10.213Z,96405.90
2019-03-03T19:53:35.042Z,96411.17
2019-03-03T19:56:59.785Z,96412.28
2019-03-03T20:00:35.057Z,96405.80
2019-03-03T20:03:54.942Z,96400.62
2019-03-03T20:07:19.858Z,96392.00
2019-03-03T20:10:44.544Z,96388.59
2019-03-03T20:14:09.821Z,96366.05
2019-03-03T20:17:34.732Z,96362.42
2019-03-03T20:21:00.296Z,96353.67
2019-03-03T20:24:24.568Z,96346.59
2019-03-03T20:27:49.309Z,96347.20
2019-03-03T20:31:17.084Z,96336.38
2019-03-03T20:34:41.634Z,96337.27
2019-03-03T20:38:06.592Z,96332.94
2019-03-03T20:41:31.445Z,96332.67
2019-03-03T20:44:56.139Z,96331.62
2019-03-03T20:48:23.327Z,96333.59
2019-03-03T20:51:49.520Z,96321.09
2019-03-03T20:55:14.895Z,96305.81
2019-03-03T20:58:39.935Z,96316.46
2019-03-03T21:02:04.434Z,96294.09
2019-03-03T21:05:29.497Z,96303.73
2019-03-03T21:08:54.391Z,96310.73
2019-03-03T21:12:19.426Z,96307.27
2019-03-03T21:15:43.950Z,96307.61
2019-03-03T21:19:08.841Z,96304.91
2019-03-03T21:22:33.286Z,96285.45
2019-03-03T21:25:57.880Z,96279.50
2019-03-03T21:29:22.788Z,96266.72
2019-03-03T21:32:47.740Z,96265.55
2019-03-03T21:36:12.623Z,96259.50
2019-03-03T21:39:37.774Z,96252.87
2019-03-03T21:43:02.320Z,96247.49
2019-03-03T21:46:27.205Z,96256.06
2019-03-03T21:49:53.343Z,96251.67
2019-03-03T21:53:17.781Z,96271.19
2019-03-03T21:56:43.099Z,96266.46
2019-03-03T22:00:20.430Z,96267.66
2019-03-03T22:03:45.264Z,96255.05
2019-03-03T22:07:10.755Z,96249.72
2019-03-03T22:10:35.647Z,96254.09
2019-03-03T22:14:00.869Z,96250.98
2019-03-03T22:17:25.450Z,96235.34
2019-03-03T22:20:50.413Z,96228.34
2019-03-03T22:24:14.962Z,96225.70
2019-03-03T22:27:39.930Z,96219.48
2019-03-03T22:31:04.352Z,96225.05
2019-03-03T22:34:29.243Z,96213.88
2019-03-03T22:37:56.863Z,96220.63
2019-03-03T22:41:21.582Z,96208.06
2019-03-03T22:44:45.894Z,96194.38
2019-03-03T22:48:10.603Z,96190.91
2019-03-03T22:51:36.514Z,96191.27
2019-03-03T22:55:00.567Z,96172.94
2019-03-03T22:58:26.448Z,96179.66
2019-03-03T23:01:51.155Z,96157.44
2019-03-03T23:05:35.396Z,96166.13
2019-03-03T23:09:22.847Z,96179.53
2019-03-03T23:13:15.760Z,96182.91
2019-03-03T23:17:24.620Z,96176.08
2019-03-03T23:21:24.541Z,96180.91
2019-03-03T23:25:29.928Z,96179.05
2019-03-03T23:28:54.679Z,96182.63
2019-03-03T23:32:19.424Z,96170.55
2019-03-03T23:35:43.764Z,96154.96
2019-03-03T23:39:09.374Z,96159.86
2019-03-03T23:42:34.194Z,96145.23
2019-03-03T23:45:58.701Z,96136.53
2019-03-03T23:49:23.172Z,96122.80
2019-03-03T23:52:47.236Z,96129.03
2019-03-03T23:56:11.429Z,96126.89
2019-03-03T23:59:35.763Z,96124.00
